Fairplay, CO (80440)

5:41 PM MDT on August 22, 2017 (GMT -0600)
Beaver Ridge | | Change Station

Elev 10354 ft 39.24 °N, 106.02 °W | Updated 10 seconds ago

Overcast
Overcast
60.2 °F
Feels Like 60.2 °F
N
4.0
Wind Variable Wind from ENE

Today
High -- | Low -- °F
--% Chance of Precip.
Yesterday
High -- | Low -- °F
Precip. -- in
Pressure 30.55 in
Visibility 9.0 miles
Clouds Few 7000 ft
Overcast 8500 ft
Dew Point 42 °F
Humidity 51%
Rainfall 0.00 in
Snow Depth Not available.
6:23 AM 7:49 PM
New Moon, 2% visible
SPECI KLXV 222328Z AUTO 32012G17KT 9SM -TSRA FEW070 OVC085 14/04 A3055 RMK AO2 LTG DSNT E AND SE RAB17 TSB22 P0000 T01390039
Pressure 30.55 in
Visibility 9.0 miles
Clouds Few 7000 ft
Overcast 8500 ft
Dew Point 42 °F
Humidity 51%
Rainfall 0.00 in
Snow Depth Not available.
6:23 AM 7:49 PM
New Moon, 2% visible
SPECI KLXV 222328Z AUTO 32012G17KT 9SM -TSRA FEW070 OVC085 14/04 A3055 RMK AO2 LTG DSNT E AND SE RAB17 TSB22 P0000 T01390039

Get Severe Weather Alerts

Thanks for signing up!

Be on the lookout for a verification email in your inbox.

You'll start receiving the daily forecast at 6 AM.

×

10-Day Weather Forecast

Almanac

Astronomy

Aug. 22, 2017 Rise Set
Actual Time
Civil Twilight
Nautical Twilight
Astronomical Twilight
Moon
Length of Visible Light
Length of Day
Tomorrow will be .
, % of the Moon is Illuminated

Today's Extremes

State Highs State Lows

Community

WunderPhotos

Category 6

Welcome to Category 6. This is the collective home for Weather Underground's featured writeups by Dr. Jeff Masters (right), Bob Henson (left), Chris Burt, and other regular contributors.

Nearby

Air Quality

  Air Quality AQ Index Pollutant
Not available.

Snow Depth

Station Depth Elevation

Earthquake Activity

City Distance Mag. Time & Date
Minimum magnitude displayed is 2.5.

Coastal Water Temperatures

Place Temperature

Stations

Nearby Weather Stations

Station Location Temp. Windchill Dew Point Humidity Wind Precip. Elev Updated Type
                   

Watches & Warnings

There are currently no watches in effect.